Time;durP1;ratioP1;P1;durP2;ratioP2;P2;SDS_P1;SDS_P2;PMS_P1;PMS_P2;Temp;Humidity;BMP_temperature;BMP_pressure;BME280_temperature;BME280_humidity;BME280_pressure;Samples;Min_cycle;Max_cycle;Signal;HPM_P1;HPM_P2
2022/12/22 03:26:25;;;;;;;1.63;1.10;;;;;;;9.72;100.00;99469.78;5044642;28;20277;-74
2022/12/22 03:28:50;;;;;;;2.40;1.00;;;;;;;9.79;100.00;99473.09;5046058;28;20191;-75
2022/12/22 03:31:16;;;;;;;1.40;0.83;;;;;;;9.85;100.00;99467.78;5045520;28;20187;-75
2022/12/22 03:33:41;;;;;;;1.87;1.10;;;;;;;9.89;100.00;99469.44;5036342;28;20245;-74
2022/12/22 03:36:08;;;;;;;1.13;0.70;;;;;;;10.02;100.00;99469.19;5038258;28;20226;-75
2022/12/22 03:38:33;;;;;;;0.93;0.60;;;;;;;10.07;100.00;99473.41;5037907;28;20242;-74
2022/12/22 03:40:59;;;;;;;2.50;1.10;;;;;;;10.11;100.00;99470.75;5041176;28;20214;-74
2022/12/22 03:46:30;;;;;;;1.13;0.70;;;;;;;10.15;100.00;99449.13;5042617;28;21026;-74
2022/12/22 03:49:09;;;;;;;2.00;1.07;;;;;;;10.14;100.00;99453.44;5037120;28;20225;-74
2022/12/22 03:51:37;;;;;;;1.97;0.90;;;;;;;10.14;100.00;99447.44;5037677;28;20203;-75
2022/12/22 03:54:02;;;;;;;1.13;0.90;;;;;;;10.12;100.00;99438.84;5037347;28;20282;-73
2022/12/22 03:56:28;;;;;;;3.57;1.27;;;;;;;10.11;100.00;99440.59;5041345;28;20210;-74
2022/12/22 03:58:54;;;;;;;1.50;0.90;;;;;;;10.11;100.00;99440.59;5040001;28;20548;-76
2022/12/22 04:01:19;;;;;;;2.53;1.10;;;;;;;10.10;100.00;99446.66;5044185;28;20221;-75
2022/12/22 04:03:45;;;;;;;2.67;1.40;;;;;;;10.05;100.00;99451.91;5040155;28;20187;-75
2022/12/22 04:06:10;;;;;;;2.63;1.13;;;;;;;10.04;100.00;99449.34;5038283;28;20214;-74
2022/12/22 04:08:36;;;;;;;1.80;0.90;;;;;;;10.06;100.00;99437.25;5025435;28;20187;-75
2022/12/22 04:13:45;;;;;;;5.03;1.47;;;;;;;10.03;100.00;99457.97;5042260;28;20277;-74
2022/12/22 04:16:13;;;;;;;2.73;1.07;;;;;;;10.03;100.00;99439.88;5038086;28;20326;-75
2022/12/22 04:18:38;;;;;;;3.10;1.33;;;;;;;10.03;100.00;99445.91;5039802;28;20196;-74
2022/12/22 04:21:03;;;;;;;3.23;1.50;;;;;;;10.02;100.00;99436.47;5037371;28;20217;-74
2022/12/22 04:23:29;;;;;;;3.33;1.40;;;;;;;9.99;100.00;99422.72;5047549;28;20197;-75
2022/12/22 04:25:54;;;;;;;4.17;2.80;;;;;;;9.98;100.00;99431.38;5066075;28;20222;-74
2022/12/22 04:28:19;;;;;;;4.80;3.30;;;;;;;9.98;100.00;99432.22;5048836;28;20273;-75
2022/12/22 04:30:47;;;;;;;4.07;2.63;;;;;;;10.02;100.00;99400.28;5033961;28;20189;-74
2022/12/22 04:33:12;;;;;;;3.97;1.97;;;;;;;10.03;100.00;99414.91;5036289;28;20741;-74
2022/12/22 04:35:37;;;;;;;3.30;2.13;;;;;;;10.04;100.00;99416.59;5035427;28;20336;-74
2022/12/22 04:38:03;;;;;;;2.73;1.50;;;;;;;10.06;100.00;99408.81;5024730;28;20278;-75
2022/12/22 04:40:28;;;;;;;2.67;1.37;;;;;;;10.06;100.00;99409.63;5038082;28;20191;-74
2022/12/22 04:42:53;;;;;;;4.23;1.80;;;;;;;10.10;100.00;99402.69;5040438;28;20283;-75
2022/12/22 04:45:19;;;;;;;4.27;1.20;;;;;;;10.12;100.00;99395.75;5039013;28;20207;-75
2022/12/22 04:47:44;;;;;;;5.47;1.47;;;;;;;10.11;100.00;99401.81;5036334;28;20582;-75
2022/12/22 04:50:09;;;;;;;4.27;1.60;;;;;;;10.12;100.00;99402.66;5038965;28;20428;-75
2022/12/22 04:52:35;;;;;;;2.47;1.30;;;;;;;10.10;100.00;99400.09;5044138;28;20181;-74
2022/12/22 04:55:00;;;;;;;2.27;1.60;;;;;;;10.10;100.00;99407.00;5040223;28;20698;-74
2022/12/22 04:57:25;;;;;;;2.97;2.03;;;;;;;10.10;100.00;99413.03;5043130;28;20727;-76
2022/12/22 04:59:51;;;;;;;4.23;2.60;;;;;;;10.10;100.00;99409.59;5023050;28;20278;-75
2022/12/22 05:02:16;;;;;;;6.83;3.83;;;;;;;10.15;100.00;99411.19;5042653;28;20203;-75
2022/12/22 05:04:42;;;;;;;4.63;3.60;;;;;;;10.17;100.00;99403.41;5026304;28;21068;-75
2022/12/22 05:07:07;;;;;;;3.47;2.27;;;;;;;10.22;100.00;99401.56;5045526;28;20273;-75
2022/12/22 05:09:33;;;;;;;4.03;2.10;;;;;;;10.21;100.00;99403.31;5039872;28;20288;-75
2022/12/22 05:11:59;;;;;;;3.83;2.30;;;;;;;10.21;100.00;99397.28;5036289;28;20262;-75
2022/12/22 05:14:24;;;;;;;6.57;5.97;;;;;;;10.21;100.00;99403.31;5037509;28;20179;-75
2022/12/22 05:16:50;;;;;;;4.10;2.60;;;;;;;10.19;100.00;99397.31;5039591;28;20192;-74
2022/12/22 05:19:15;;;;;;;4.20;2.00;;;;;;;10.21;100.00;99397.28;5043602;28;20179;-75
2022/12/22 05:21:40;;;;;;;5.57;1.97;;;;;;;10.20;100.00;99383.50;5045131;28;20246;-75
2022/12/22 05:24:06;;;;;;;4.00;1.80;;;;;;;10.18;100.00;99390.44;5043322;28;20689;-74
2022/12/22 05:26:31;;;;;;;3.33;1.40;;;;;;;10.20;100.00;99395.59;5042495;28;20241;-75
2022/12/22 05:28:57;;;;;;;3.60;1.70;;;;;;;10.22;100.00;99389.50;5026266;28;20187;-75
2022/12/22 05:31:24;;;;;;;3.30;1.50;;;;;;;10.24;100.00;99407.56;5039743;28;20656;-75
2022/12/22 05:33:50;;;;;;;5.87;1.77;;;;;;;10.28;100.00;99398.84;5047361;28;20595;-75
2022/12/22 05:36:16;;;;;;;4.77;1.63;;;;;;;10.31;100.00;99400.50;5037982;28;20195;-74
2022/12/22 05:38:43;;;;;;;3.63;1.30;;;;;;;10.34;100.00;99397.88;5040992;28;20741;-75
2022/12/22 05:41:09;;;;;;;3.77;1.57;;;;;;;10.39;100.00;99390.03;5043724;28;20344;-75
2022/12/22 05:43:35;;;;;;;6.17;1.67;;;;;;;10.37;100.00;99383.13;5043365;28;20660;-74
2022/12/22 05:46:08;;;;;;;5.17;1.90;;;;;;;10.41;100.00;99380.50;5044034;28;20211;-75
2022/12/22 05:48:34;;;;;;;3.23;1.77;;;;;;;10.39;100.00;99371.91;5043687;28;20596;-75
2022/12/22 05:50:59;;;;;;;4.83;1.97;;;;;;;10.41;100.00;99381.38;5041643;28;20184;-75
2022/12/22 05:53:25;;;;;;;6.30;1.97;;;;;;;10.42;100.00;99374.44;5041661;28;22116;-74
2022/12/22 05:55:51;;;;;;;5.90;2.20;;;;;;;10.44;100.00;99372.69;5031117;28;20233;-75
2022/12/22 05:58:17;;;;;;;6.47;2.30;;;;;;;10.44;100.00;99375.25;5039723;28;20220;-75
2022/12/22 06:00:42;;;;;;;6.37;2.30;;;;;;;10.49;100.00;99383.78;5025167;28;20674;-75
2022/12/22 06:03:08;;;;;;;4.23;2.20;;;;;;;10.48;100.00;99382.91;5044171;28;20235;-75
2022/12/22 06:05:33;;;;;;;5.57;2.47;;;;;;;10.54;100.00;99397.44;5030622;28;20270;-75
2022/12/22 06:07:58;;;;;;;4.67;2.20;;;;;;;10.52;100.00;99388.84;5048119;28;20548;-75
2022/12/22 06:10:24;;;;;;;6.07;2.10;;;;;;;10.56;100.00;99385.31;5052905;28;20234;-74
2022/12/22 06:12:49;;;;;;;5.40;2.03;;;;;;;10.55;100.00;99383.63;5052112;28;20183;-76
2022/12/22 06:15:14;;;;;;;6.27;2.27;;;;;;;10.55;100.00;99393.97;5051799;28;20207;-75
2022/12/22 06:17:40;;;;;;;5.63;2.03;;;;;;;10.50;100.00;99390.66;5046972;28;20182;-74
2022/12/22 06:20:07;;;;;;;4.57;2.10;;;;;;;10.48;100.00;99398.44;5053888;28;20175;-75
2022/12/22 06:22:33;;;;;;;6.30;2.10;;;;;;;10.50;100.00;99388.06;5055738;28;20206;-74
2022/12/22 06:24:58;;;;;;;7.30;2.37;;;;;;;10.51;100.00;99387.19;5060009;28;20855;-74
2022/12/22 06:27:24;;;;;;;6.63;2.23;;;;;;;10.52;100.00;99394.03;5033704;28;20186;-75
2022/12/22 06:29:49;;;;;;;5.50;2.27;;;;;;;10.57;100.00;99391.38;5051946;28;20182;-76
2022/12/22 06:32:14;;;;;;;4.70;2.10;;;;;;;10.57;100.00;99396.53;5078121;28;20205;-75
2022/12/22 06:34:40;;;;;;;4.53;2.10;;;;;;;10.60;100.00;99399.03;5049124;28;20217;-75
2022/12/22 06:37:05;;;;;;;6.10;2.37;;;;;;;10.62;100.00;99400.72;5065052;28;20203;-74
2022/12/22 06:39:30;;;;;;;5.67;2.30;;;;;;;10.66;100.00;99412.66;5069230;28;20193;-74
2022/12/22 06:44:40;;;;;;;6.27;2.40;;;;;;;10.77;100.00;99404.66;5055886;28;20572;-74
2022/12/22 06:47:05;;;;;;;6.47;2.43;;;;;;;10.79;100.00;99409.81;5052722;28;20180;-75
2022/12/22 06:49:30;;;;;;;5.13;2.13;;;;;;;10.79;100.00;99409.81;5043998;28;20291;-75
2022/12/22 06:51:56;;;;;;;5.07;1.90;;;;;;;10.80;100.00;99424.47;5057709;28;20556;-75
2022/12/22 06:54:21;;;;;;;6.50;2.33;;;;;;;10.86;100.00;99413.94;5051246;28;20694;-75
2022/12/22 06:56:46;;;;;;;7.20;2.37;;;;;;;10.81;100.00;99410.63;5052620;28;20206;-76
2022/12/22 06:59:12;;;;;;;6.60;2.30;;;;;;;10.79;100.00;99415.81;5025382;28;20192;-76
2022/12/22 07:01:37;;;;;;;5.20;2.13;;;;;;;10.79;100.00;99427.94;5052200;28;20356;-76
2022/12/22 07:04:05;;;;;;;8.17;2.47;;;;;;;10.78;100.00;99441.75;5047598;28;20215;-75
2022/12/22 07:06:31;;;;;;;5.63;2.43;;;;;;;10.81;100.00;99442.53;5048806;28;20304;-75
2022/12/22 07:08:56;;;;;;;6.10;2.20;;;;;;;10.79;100.00;99444.28;5042370;28;20226;-75
2022/12/22 07:11:21;;;;;;;5.80;2.27;;;;;;;10.78;100.00;99458.13;5053836;28;20176;-75
2022/12/22 07:13:47;;;;;;;5.07;1.97;;;;;;;10.80;100.00;99440.00;5042793;28;20217;-75
2022/12/22 07:16:12;;;;;;;6.17;2.10;;;;;;;10.77;100.00;99443.47;5053685;28;20218;-75
2022/12/22 07:18:41;;;;;;;6.23;2.33;;;;;;;10.78;100.00;99446.94;5046516;28;20210;-75
2022/12/22 07:21:10;;;;;;;8.63;2.57;;;;;;;10.79;100.00;99443.47;5047105;28;20228;-76
2022/12/22 07:23:36;;;;;;;8.73;2.70;;;;;;;10.78;100.00;99445.19;5057439;28;20187;-76
2022/12/22 07:26:02;;;;;;;6.60;2.60;;;;;;;10.81;100.00;99439.09;5064415;28;20210;-76
2022/12/22 07:28:28;;;;;;;7.40;2.63;;;;;;;10.80;100.00;99438.25;5052724;28;20257;-75
2022/12/22 07:30:54;;;;;;;8.23;2.63;;;;;;;10.85;100.00;99450.22;5051133;28;20709;-76
2022/12/22 07:33:20;;;;;;;6.77;2.73;;;;;;;10.86;100.00;99442.41;5050548;28;20674;-76
2022/12/22 07:35:45;;;;;;;7.00;2.13;;;;;;;10.89;100.00;99433.75;5051270;28;20199;-75
2022/12/22 07:38:11;;;;;;;7.60;2.90;;;;;;;10.89;100.00;99460.47;5054628;28;20292;-76
2022/12/22 07:40:36;;;;;;;5.70;2.17;;;;;;;10.93;100.00;99438.81;5038871;28;20231;-74
2022/12/22 07:43:02;;;;;;;7.10;2.20;;;;;;;10.96;100.00;99432.69;5050760;28;20214;-74
2022/12/22 07:45:28;;;;;;;7.63;2.10;;;;;;;10.98;100.00;99436.09;5048639;28;20610;-76
2022/12/22 07:48:00;;;;;;;5.63;2.03;;;;;;;10.96;100.00;99437.88;5049008;28;20184;-75
2022/12/22 07:50:31;;;;;;;5.57;2.37;;;;;;;10.98;100.00;99438.69;5044087;28;20186;-75
2022/12/22 07:52:59;;;;;;;5.53;2.50;;;;;;;11.02;100.00;99449.81;5043198;28;21467;-76
2022/12/22 07:55:27;;;;;;;6.23;2.10;;;;;;;11.02;100.00;99436.88;5042338;28;20302;-75
2022/12/22 07:57:53;;;;;;;6.80;2.40;;;;;;;11.02;100.00;99440.31;5028324;28;20191;-75
2022/12/22 08:00:20;;;;;;;6.17;2.50;;;;;;;11.03;100.00;99438.56;5027847;28;20267;-75
2022/12/22 08:02:55;;;;;;;7.33;2.17;;;;;;;11.04;100.00;99445.44;5046380;28;20254;-75
2022/12/22 08:05:23;;;;;;;6.77;2.43;;;;;;;11.03;100.00;99451.50;5044546;28;20251;-75
2022/12/22 08:07:49;;;;;;;8.70;2.77;;;;;;;11.01;100.00;99441.22;5029947;28;20215;-76
2022/12/22 08:10:15;;;;;;;5.37;2.20;;;;;;;11.00;100.00;99423.09;5043567;28;20195;-75
2022/12/22 08:12:40;;;;;;;5.60;2.43;;;;;;;11.01;100.00;99432.56;5045029;28;20209;-75
2022/12/22 08:15:07;;;;;;;5.43;2.07;;;;;;;11.04;100.00;99433.34;5045159;28;20260;-75
2022/12/22 08:17:32;;;;;;;8.27;2.40;;;;;;;11.08;100.00;99445.34;5047534;28;20212;-75
2022/12/22 08:19:58;;;;;;;6.37;2.33;;;;;;;11.11;100.00;99427.13;5026965;28;20212;-76
2022/12/22 08:22:23;;;;;;;6.67;2.60;;;;;;;11.15;100.00;99440.00;5046249;28;20724;-75
2022/12/22 08:24:50;;;;;;;6.83;2.33;;;;;;;11.22;100.00;99441.53;5047348;28;20233;-74
2022/12/22 08:27:20;;;;;;;4.93;2.10;;;;;;;11.25;100.00;99450.09;5044207;28;20186;-75
2022/12/22 08:29:49;;;;;;;5.37;2.17;;;;;;;11.23;100.00;99456.19;5044487;28;20245;-75
2022/12/22 08:32:15;;;;;;;8.87;2.80;;;;;;;11.24;100.00;99461.34;5041555;28;20309;-73
2022/12/22 08:34:40;;;;;;;5.53;2.60;;;;;;;11.23;100.00;99459.66;5040654;28;20206;-74
2022/12/22 08:37:12;;;;;;;4.70;2.33;;;;;;;11.25;100.00;99465.66;5046745;28;20201;-74
2022/12/22 08:39:39;;;;;;;6.97;2.30;;;;;;;11.21;100.00;99461.44;5053380;28;20243;-75
2022/12/22 08:42:08;;;;;;;7.80;2.50;;;;;;;11.20;100.00;99476.97;5048112;28;20212;-75
2022/12/22 08:44:35;;;;;;;8.63;3.07;;;;;;;11.21;100.00;99473.50;5029776;28;20682;-75
2022/12/22 08:47:00;;;;;;;11.60;3.43;;;;;;;11.18;100.00;99479.63;5051625;28;20198;-75
2022/12/22 08:49:26;;;;;;;9.27;2.90;;;;;;;11.12;100.00;99490.13;5070203;28;20174;-76
2022/12/22 08:51:53;;;;;;;8.53;3.20;;;;;;;11.05;100.00;99471.28;5083536;28;20229;-75
2022/12/22 08:54:19;;;;;;;8.03;2.77;;;;;;;11.00;100.00;99487.81;5035804;28;20855;-74
2022/12/22 08:56:44;;;;;;;7.97;2.43;;;;;;;10.96;100.00;99489.66;5054654;28;20188;-75
2022/12/22 08:59:10;;;;;;;7.53;2.43;;;;;;;10.97;100.00;99487.00;5053187;28;20702;-75
2022/12/22 09:01:37;;;;;;;8.67;3.20;;;;;;;11.00;100.00;99488.69;5062238;28;20254;-74
2022/12/22 09:04:04;;;;;;;7.93;2.77;;;;;;;10.98;100.00;99493.91;5055540;28;20190;-74
2022/12/22 09:06:30;;;;;;;8.90;2.87;;;;;;;10.98;100.00;99501.66;5054739;28;20233;-76
2022/12/22 09:08:59;;;;;;;7.90;2.73;;;;;;;10.99;100.00;99505.13;5044710;28;20302;-74
2022/12/22 09:11:25;;;;;;;9.50;3.07;;;;;;;10.94;100.00;99501.78;5048613;28;20194;-74
2022/12/22 09:13:52;;;;;;;7.50;2.43;;;;;;;10.92;100.00;99509.59;5050727;28;20189;-75
2022/12/22 09:16:19;;;;;;;7.27;2.80;;;;;;;10.87;100.00;99515.75;5049519;28;20567;-74
2022/12/22 09:18:44;;;;;;;9.50;3.00;;;;;;;10.81;100.00;99517.59;5048018;28;20192;-75
2022/12/22 09:21:09;;;;;;;7.20;2.90;;;;;;;10.74;100.00;99523.78;5045051;28;20325;-75
2022/12/22 09:23:35;;;;;;;8.67;3.30;;;;;;;10.68;100.00;99526.50;5045326;28;20861;-74
2022/12/22 09:26:06;;;;;;;8.97;2.87;;;;;;;10.65;100.00;99535.19;5047988;28;20290;-75
2022/12/22 09:28:31;;;;;;;9.03;2.77;;;;;;;10.60;100.00;99552.53;5047610;28;20194;-74
2022/12/22 09:30:57;;;;;;;11.53;4.40;;;;;;;10.56;100.00;99552.66;5056730;28;20193;-75
2022/12/22 09:33:25;;;;;;;6.70;3.77;;;;;;;10.50;100.00;99558.81;5046945;28;20865;-74
2022/12/22 09:35:50;;;;;;;8.70;3.93;;;;;;;10.46;100.00;99560.56;5048505;28;20210;-75
2022/12/22 09:38:15;;;;;;;10.30;5.80;;;;;;;10.44;100.00;99567.50;5056535;28;20233;-75
2022/12/22 09:40:41;;;;;;;9.70;4.20;;;;;;;10.42;100.00;99569.31;5055118;28;20187;-74
2022/12/22 09:43:11;;;;;;;9.60;4.87;;;;;;;10.36;100.00;99588.31;5037207;28;20271;-74
2022/12/22 09:45:37;;;;;;;10.63;5.90;;;;;;;10.35;100.00;99593.53;5051668;28;20252;-74
2022/12/22 09:48:02;;;;;;;10.77;5.63;;;;;;;10.34;100.00;99599.59;5057892;28;22137;-75
2022/12/22 09:50:38;;;;;;;10.60;7.07;;;;;;;10.33;100.00;99606.50;5053381;28;20541;-75
2022/12/22 09:53:07;;;;;;;9.47;6.53;;;;;;;10.38;100.00;99603.88;5047654;28;20208;-75
2022/12/22 09:55:46;;;;;;;10.13;4.90;;;;;;;10.43;100.00;99607.22;5054104;28;20683;-74
2022/12/22 09:58:29;;;;;;;7.10;4.27;;;;;;;10.47;100.00;99608.00;5053298;28;20192;-74
2022/12/22 10:01:12;;;;;;;9.73;4.70;;;;;;;10.50;100.00;99610.53;5056878;28;20185;-75
2022/12/22 10:03:40;;;;;;;10.23;4.87;;;;;;;10.51;100.00;99610.50;5059460;28;20179;-74
2022/12/22 10:06:20;;;;;;;10.03;4.53;;;;;;;10.51;100.00;99627.78;5052347;28;20213;-74
2022/12/22 10:08:45;;;;;;;11.33;7.13;;;;;;;10.49;100.00;99625.19;5057038;28;20189;-73
2022/12/22 10:11:16;;;;;;;9.27;5.77;;;;;;;10.49;100.00;99616.59;5055160;28;20186;-74
2022/12/22 10:13:42;;;;;;;9.43;5.17;;;;;;;10.50;100.00;99634.66;5056852;28;20199;-73
2022/12/22 10:16:23;;;;;;;7.50;5.67;;;;;;;10.50;100.00;99629.50;5053404;28;20230;-74
2022/12/22 10:19:05;;;;;;;8.30;5.57;;;;;;;10.48;100.00;99631.25;5051746;28;20565;-75
2022/12/22 10:21:30;;;;;;;14.03;12.23;;;;;;;10.48;100.00;99635.59;5046379;28;20303;-75
2022/12/22 10:23:56;;;;;;;9.10;5.67;;;;;;;10.43;100.00;99633.09;5048647;28;20275;-74
2022/12/22 10:26:25;;;;;;;13.70;9.87;;;;;;;10.44;100.00;99633.94;5046742;28;20211;-74
2022/12/22 10:29:12;;;;;;;18.67;16.50;;;;;;;10.41;100.00;99628.81;5053556;28;20233;-74
2022/12/22 10:31:58;;;;;;;17.27;12.60;;;;;;;10.35;100.00;99640.97;5049002;28;20189;-74
2022/12/22 10:34:23;;;;;;;18.63;13.70;;;;;;;10.31;100.00;99639.31;5052383;28;20273;-74
2022/12/22 10:36:52;;;;;;;12.57;8.07;;;;;;;10.29;100.00;99641.06;5049773;28;20360;-75
2022/12/22 10:39:21;;;;;;;19.97;13.47;;;;;;;10.27;100.00;99641.97;5050298;28;20197;-74
2022/12/22 10:41:50;;;;;;;17.70;13.13;;;;;;;10.26;100.00;99650.63;5048913;28;20223;-75
2022/12/22 10:44:15;;;;;;;18.60;13.60;;;;;;;10.24;100.00;99648.03;5047170;28;20218;-74
2022/12/22 10:46:44;;;;;;;19.30;13.80;;;;;;;10.21;100.00;99648.09;5048365;28;20630;-75
2022/12/22 10:49:24;;;;;;;17.50;11.87;;;;;;;10.20;100.00;99651.59;5038131;28;20193;-75
2022/12/22 10:51:56;;;;;;;21.00;15.43;;;;;;;10.17;100.00;99660.22;5049334;28;20269;-74
2022/12/22 10:54:29;;;;;;;14.70;10.20;;;;;;;10.16;100.00;99660.28;5046025;28;20179;-74
2022/12/22 10:57:00;;;;;;;12.27;6.57;;;;;;;10.14;100.00;99668.03;5051301;28;20200;-75
2022/12/22 10:59:25;;;;;;;20.93;14.50;;;;;;;10.14;100.00;99665.44;5061929;28;20192;-75
2022/12/22 11:01:50;;;;;;;21.30;15.47;;;;;;;10.14;100.00;99662.03;5076401;28;20209;-75
2022/12/22 11:04:24;;;;;;;25.60;17.90;;;;;;;10.14;100.00;99659.44;5037201;28;20219;-74
2022/12/22 11:06:51;;;;;;;14.73;9.17;;;;;;;10.12;100.00;99661.19;5047268;28;20194;-75
2022/12/22 11:09:17;;;;;;;10.63;6.03;;;;;;;10.13;100.00;99668.06;5050288;28;20188;-75
2022/12/22 11:11:42;;;;;;;11.53;5.70;;;;;;;10.11;100.00;99652.59;5051034;28;20274;-74
2022/12/22 11:14:45;;;;;;;11.80;4.87;;;;;;;10.14;100.00;99659.44;5030441;28;20198;-74
2022/12/22 11:17:55;;;;;;;9.23;5.50;;;;;;;10.15;100.00;99655.97;5049418;28;20196;-75
2022/12/22 11:20:27;;;;;;;9.50;5.60;;;;;;;10.14;100.00;99655.09;5007773;28;20250;-76
2022/12/22 11:23:25;;;;;;;7.47;4.13;;;;;;;10.15;100.00;99654.22;5049772;28;20217;-75
2022/12/22 11:25:56;;;;;;;8.13;4.83;;;;;;;10.15;100.00;99638.72;5046185;28;20256;-76
2022/12/22 11:29:03;;;;;;;7.10;4.67;;;;;;;10.17;100.00;99654.22;5056118;28;20206;-74
2022/12/22 11:31:46;;;;;;;7.37;5.30;;;;;;;10.18;100.00;99650.75;5042734;28;20197;-75
2022/12/22 11:34:31;;;;;;;6.57;4.30;;;;;;;10.18;100.00;99661.94;5050711;28;20252;-76
2022/12/22 11:37:15;;;;;;;6.63;4.00;;;;;;;10.20;100.00;99662.78;5047139;28;20256;-75
2022/12/22 11:39:49;;;;;;;7.43;4.23;;;;;;;10.20;100.00;99664.50;5052698;28;20175;-75
2022/12/22 11:42:47;;;;;;;7.90;3.67;;;;;;;10.24;100.00;99653.22;5050517;28;20225;-76
2022/12/22 11:45:28;;;;;;;11.40;6.10;;;;;;;10.25;100.00;99652.34;5055015;28;20210;-75
2022/12/22 11:48:18;;;;;;;12.87;6.20;;;;;;;10.27;100.00;99666.09;5050292;28;20198;-75
2022/12/22 11:50:49;;;;;;;9.23;4.93;;;;;;;10.27;100.00;99668.69;5049182;28;20946;-76
2022/12/22 11:53:23;;;;;;;7.47;4.47;;;;;;;10.29;100.00;99673.81;5054790;28;20182;-74
2022/12/22 11:56:07;;;;;;;10.03;3.90;;;;;;;10.30;100.00;99675.53;5049749;28;20201;-75
2022/12/22 11:58:48;;;;;;;5.53;3.13;;;;;;;10.32;100.00;99664.28;5041055;28;20195;-75
2022/12/22 12:01:34;;;;;;;9.80;3.53;;;;;;;10.35;100.00;99669.41;5046350;28;20214;-74
2022/12/22 12:04:21;;;;;;;8.90;3.03;;;;;;;10.35;100.00;99666.84;5043543;28;20662;-75
2022/12/22 12:07:17;;;;;;;7.77;3.30;;;;;;;10.35;100.00;99660.78;5056275;28;20285;-75
2022/12/22 12:09:52;;;;;;;7.00;2.70;;;;;;;10.35;100.00;99651.31;5056621;28;20673;-75
2022/12/22 12:12:34;;;;;;;6.23;2.33;;;;;;;10.37;100.00;99662.47;5049162;28;20267;-75
2022/12/22 12:15:15;;;;;;;9.27;2.90;;;;;;;10.39;100.00;99659.03;5050960;28;20218;-75
2022/12/22 12:18:02;;;;;;;5.77;2.80;;;;;;;10.38;100.00;99668.53;5048582;28;20281;-75
2022/12/22 12:20:49;;;;;;;6.70;2.83;;;;;;;10.39;100.00;99666.78;5046372;28;20186;-76
2022/12/22 12:23:17;;;;;;;9.07;3.00;;;;;;;10.37;100.00;99682.31;5046069;28;20761;-75
2022/12/22 12:25:55;;;;;;;6.57;2.53;;;;;;;10.36;100.00;99698.72;5052583;28;20206;-74
2022/12/22 12:28:37;;;;;;;4.53;2.30;;;;;;;10.38;100.00;99704.75;5053657;28;20897;-75
2022/12/22 12:31:05;;;;;;;8.00;2.30;;;;;;;10.40;100.00;99710.75;5047338;28;20195;-74
2022/12/22 12:33:41;;;;;;;8.97;2.70;;;;;;;10.45;100.00;99713.25;5050219;28;20305;-74
2022/12/22 12:36:31;;;;;;;6.13;2.47;;;;;;;10.50;100.00;99717.47;5051780;28;20240;-74
2022/12/22 12:38:56;;;;;;;4.47;2.40;;;;;;;10.53;100.00;99716.53;5056161;28;20190;-75
2022/12/22 12:41:35;;;;;;;7.37;2.70;;;;;;;10.52;100.00;99720.88;5050667;28;20225;-75
2022/12/22 12:44:02;;;;;;;6.77;2.67;;;;;;;10.56;100.00;99728.59;5046446;28;20191;-74
2022/12/22 12:46:49;;;;;;;6.03;2.10;;;;;;;10.56;100.00;99723.41;5047798;28;20202;-74
2022/12/22 12:49:32;;;;;;;5.77;2.30;;;;;;;10.57;100.00;99732.88;5046715;28;20186;-75
2022/12/22 12:52:00;;;;;;;6.47;2.20;;;;;;;10.57;100.00;99730.28;5052617;28;20199;-74
2022/12/22 12:54:25;;;;;;;7.27;2.63;;;;;;;10.58;100.00;99727.66;5048637;28;20192;-75
2022/12/22 12:57:19;;;;;;;7.07;2.40;;;;;;;10.55;100.00;99727.72;5050765;28;20252;-74
2022/12/22 12:59:45;;;;;;;7.20;2.53;;;;;;;10.53;100.00;99721.72;5011384;28;20390;-74
2022/12/22 13:02:26;;;;;;;7.53;2.60;;;;;;;10.54;100.00;99727.75;5045523;28;20318;-74
2022/12/22 13:05:07;;;;;;;7.40;2.70;;;;;;;10.52;100.00;99725.19;5057709;28;20208;-74
2022/12/22 13:08:14;;;;;;;6.97;2.60;;;;;;;10.53;100.00;99729.47;5056374;28;20245;-74
2022/12/22 13:10:41;;;;;;;8.43;2.87;;;;;;;10.55;100.00;99730.31;5069230;28;20239;-75
2022/12/22 13:13:32;;;;;;;6.67;2.50;;;;;;;10.59;100.00;99742.31;5048646;28;20182;-74
2022/12/22 13:16:06;;;;;;;6.70;2.80;;;;;;;10.62;100.00;99731.03;5036937;28;20299;-75
2022/12/22 13:18:34;;;;;;;7.90;2.67;;;;;;;10.64;100.00;99747.41;5051484;28;20188;-75
2022/12/22 13:20:59;;;;;;;10.03;3.10;;;;;;;10.67;100.00;99742.19;5044234;28;21031;-75
2022/12/22 13:23:35;;;;;;;7.47;2.90;;;;;;;10.68;100.00;99749.91;5039734;28;20201;-75
2022/12/22 13:26:15;;;;;;;6.13;2.90;;;;;;;10.71;100.00;99759.38;5037799;28;20238;-75
2022/12/22 13:28:43;;;;;;;6.33;2.40;;;;;;;10.68;100.00;99757.66;5050460;28;20191;-75
2022/12/22 13:31:21;;;;;;;5.03;2.00;;;;;;;10.68;100.00;99755.06;5042765;28;20184;-74
2022/12/22 13:33:56;;;;;;;6.77;2.13;;;;;;;10.67;100.00;99750.78;5040941;28;20280;-75
2022/12/22 13:36:26;;;;;;;5.40;2.10;;;;;;;10.67;100.00;99758.53;5042908;28;20199;-74
2022/12/22 13:39:04;;;;;;;8.17;2.40;;;;;;;10.69;100.00;99763.72;5046398;28;20277;-75
2022/12/22 13:41:32;;;;;;;5.80;2.13;;;;;;;10.66;100.00;99756.84;5041479;28;20937;-75
2022/12/22 13:44:05;;;;;;;6.77;2.40;;;;;;;10.65;100.00;99749.13;5041962;28;20245;-75
2022/12/22 13:46:33;;;;;;;5.13;2.40;;;;;;;10.64;100.00;99745.69;5044592;28;20208;-75
2022/12/22 13:49:01;;;;;;;6.87;2.33;;;;;;;10.63;100.00;99751.75;5042964;28;20192;-75
2022/12/22 13:51:31;;;;;;;6.43;2.60;;;;;;;10.63;100.00;99751.75;5044562;28;20183;-75
2022/12/22 13:54:15;;;;;;;4.83;1.87;;;;;;;10.65;100.00;99754.28;5040026;28;20183;-74
2022/12/22 13:56:44;;;;;;;5.83;2.60;;;;;;;10.70;100.00;99743.84;5041961;28;20213;-75
2022/12/22 13:59:30;;;;;;;6.70;2.67;;;;;;;10.70;100.00;99736.94;5044120;28;20671;-76
2022/12/22 14:01:59;;;;;;;7.13;2.40;;;;;;;10.73;100.00;99729.13;5039088;28;20207;-75
2022/12/22 14:04:25;;;;;;;6.07;2.67;;;;;;;10.73;100.00;99736.91;5033622;28;20260;-75
2022/12/22 14:06:51;;;;;;;6.67;2.53;;;;;;;10.74;100.00;99732.56;5042255;28;20188;-75
2022/12/22 14:09:20;;;;;;;6.97;3.17;;;;;;;10.76;100.00;99736.81;5045337;28;20235;-75
2022/12/22 14:12:00;;;;;;;9.13;3.03;;;;;;;10.76;100.00;99729.06;5040222;28;20186;-75
2022/12/22 14:14:35;;;;;;;10.37;6.13;;;;;;;10.75;100.00;99734.28;5043139;28;20209;-75
2022/12/22 14:17:01;;;;;;;11.23;5.37;;;;;;;10.73;100.00;99736.91;5045666;28;20206;-75
2022/12/22 14:19:32;;;;;;;7.23;3.30;;;;;;;10.73;100.00;99738.63;5042691;28;20185;-75
2022/12/22 14:22:16;;;;;;;8.13;3.13;;;;;;;10.72;100.00;99749.84;5042104;28;20280;-75
2022/12/22 14:24:46;;;;;;;6.10;3.20;;;;;;;10.71;100.00;99754.19;5045743;28;20207;-75
2022/12/22 14:27:21;;;;;;;6.53;2.73;;;;;;;10.74;100.00;99754.09;5045025;28;20287;-75
2022/12/22 14:29:47;;;;;;;5.47;2.43;;;;;;;10.75;100.00;99758.41;5048597;28;20195;-75
2022/12/22 14:32:33;;;;;;;8.73;2.93;;;;;;;10.77;100.00;99764.41;5042806;28;20724;-75
2022/12/22 14:34:58;;;;;;;8.00;3.13;;;;;;;10.78;100.00;99757.50;5045774;28;20198;-75
2022/12/22 14:37:24;;;;;;;8.83;3.30;;;;;;;10.78;100.00;99755.78;5027082;28;20210;-75
2022/12/22 14:39:54;;;;;;;8.47;3.70;;;;;;;10.75;100.00;99758.41;5038572;28;20198;-75
2022/12/22 14:42:20;;;;;;;8.57;3.47;;;;;;;10.72;100.00;99760.19;5040604;28;20733;-75
2022/12/22 14:44:47;;;;;;;7.90;3.20;;;;;;;10.69;100.00;99761.13;5041774;28;20205;-75
2022/12/22 14:47:18;;;;;;;7.10;3.10;;;;;;;10.66;100.00;99762.00;5047463;28;20181;-75
2022/12/22 14:49:56;;;;;;;8.40;2.90;;;;;;;10.65;100.00;99767.22;5044532;28;20194;-75
2022/12/22 14:52:36;;;;;;;9.23;3.17;;;;;;;10.64;100.00;99765.50;5037148;28;20195;-75
2022/12/22 14:55:19;;;;;;;9.40;3.33;;;;;;;10.63;100.00;99763.81;5044315;28;20304;-76
2022/12/22 14:57:45;;;;;;;8.60;3.57;;;;;;;10.62;100.00;99765.56;5045437;28;20275;-76
2022/12/22 15:00:23;;;;;;;11.73;4.20;;;;;;;10.62;100.00;99770.72;5044895;28;20288;-76
2022/12/22 15:02:54;;;;;;;9.67;3.77;;;;;;;10.61;100.00;99761.25;5022190;28;20264;-75
2022/12/22 15:05:31;;;;;;;6.97;2.90;;;;;;;10.59;100.00;99763.00;5037886;28;20213;-76
2022/12/22 15:07:58;;;;;;;7.67;3.07;;;;;;;10.56;100.00;99760.47;5036446;28;20329;-75
2022/12/22 15:10:25;;;;;;;8.33;3.13;;;;;;;10.57;100.00;99767.34;5023901;28;20614;-75
2022/12/22 15:12:57;;;;;;;8.60;3.20;;;;;;;10.55;100.00;99758.75;5043460;28;20540;-75